createdAt,value
2019-06-20T00:01:29.770Z,6.42
2019-06-20T00:03:58.282Z,6.05
2019-06-20T00:06:26.704Z,7.33
2019-06-20T00:08:55.140Z,7.22
2019-06-20T00:11:23.569Z,8.05
2019-06-20T00:13:52.004Z,7.40
2019-06-20T00:16:20.432Z,7.62
2019-06-20T00:18:48.870Z,8.05
2019-06-20T00:21:17.296Z,8.60
2019-06-20T00:23:45.736Z,7.20
2019-06-20T00:26:14.234Z,7.75
2019-06-20T00:28:42.683Z,8.95
2019-06-20T00:31:11.128Z,9.90
2019-06-20T00:33:39.549Z,10.58
2019-06-20T00:36:07.999Z,10.15
2019-06-20T00:38:36.435Z,10.65
2019-06-20T00:41:04.898Z,11.30
2019-06-20T00:43:33.322Z,9.20
2019-06-20T00:46:01.754Z,8.58
2019-06-20T00:48:30.203Z,8.28
2019-06-20T00:50:58.769Z,7.85
2019-06-20T00:53:27.314Z,8.20
2019-06-20T00:55:55.757Z,9.33
2019-06-20T00:58:24.172Z,8.18
2019-06-20T01:00:52.682Z,7.62
2019-06-20T01:03:21.211Z,7.65
2019-06-20T01:05:49.631Z,8.85
2019-06-20T01:08:18.260Z,7.78
2019-06-20T01:10:46.745Z,8.38
2019-06-20T01:13:15.179Z,8.20
2019-06-20T01:15:43.615Z,8.08
2019-06-20T01:18:12.047Z,7.85
2019-06-20T01:20:40.490Z,8.20
2019-06-20T01:23:09.074Z,8.08
2019-06-20T01:25:39.346Z,8.23
2019-06-20T01:28:08.529Z,7.75
2019-06-20T01:30:37.156Z,9.33
2019-06-20T01:33:06.233Z,8.45
2019-06-20T01:35:34.665Z,10.82
2019-06-20T01:38:03.466Z,11.18
2019-06-20T01:40:31.896Z,11.78
2019-06-20T01:43:00.334Z,18.00
2019-06-20T01:45:28.766Z,14.28
2019-06-20T01:47:57.197Z,15.70
2019-06-20T01:50:25.709Z,16.75
2019-06-20T01:52:54.158Z,15.85
2019-06-20T01:55:22.676Z,17.17
2019-06-20T01:57:51.181Z,23.47
2019-06-20T02:00:40.632Z,23.87
2019-06-20T02:03:09.141Z,23.87
2019-06-20T02:05:37.577Z,24.90
2019-06-20T02:08:06.084Z,26.73
2019-06-20T02:10:34.592Z,14.93
2019-06-20T02:13:03.042Z,18.98
2019-06-20T02:15:31.480Z,20.35
2019-06-20T02:17:59.919Z,18.07
2019-06-20T02:20:33.721Z,17.42
2019-06-20T02:23:02.420Z,15.75
2019-06-20T02:25:31.077Z,14.25
2019-06-20T02:27:59.602Z,15.45
2019-06-20T02:30:28.276Z,12.15
2019-06-20T02:32:56.711Z,12.15
2019-06-20T02:35:25.214Z,12.10
2019-06-20T02:37:53.914Z,12.07
2019-06-20T02:40:22.798Z,11.60
2019-06-20T02:42:51.303Z,12.50
2019-06-20T02:45:20.121Z,13.18
2019-06-20T02:47:48.581Z,13.08
2019-06-20T02:50:17.745Z,14.15
2019-06-20T02:52:46.191Z,14.37
2019-06-20T02:55:14.969Z,14.87
2019-06-20T02:57:43.423Z,14.43
2019-06-20T03:00:13.494Z,13.93
2019-06-20T03:02:41.932Z,13.60
2019-06-20T03:05:10.918Z,13.93
2019-06-20T03:07:39.383Z,12.80
2019-06-20T03:10:08.356Z,15.90
2019-06-20T03:12:36.793Z,15.45
2019-06-20T03:15:07.180Z,12.35
2019-06-20T03:20:04.620Z,12.18
2019-06-20T03:22:33.120Z,14.03
2019-06-20T03:25:01.579Z,13.72
2019-06-20T03:27:29.993Z,19.77
2019-06-20T03:29:58.433Z,21.62
2019-06-20T03:32:26.876Z,14.33
2019-06-20T03:34:55.308Z,14.98
2019-06-20T03:37:23.752Z,14.68
2019-06-20T03:39:52.323Z,15.30
2019-06-20T03:42:20.785Z,14.70
2019-06-20T03:45:01.754Z,14.35
2019-06-20T03:47:19.430Z,15.75
2019-06-20T03:49:47.877Z,13.55
2019-06-20T03:52:16.414Z,13.10
2019-06-20T03:54:45.297Z,13.70
2019-06-20T03:57:13.784Z,13.45
2019-06-20T03:59:42.276Z,12.93
2019-06-20T04:02:10.749Z,13.40
2019-06-20T04:04:39.187Z,13.50
2019-06-20T04:07:07.622Z,13.30
2019-06-20T04:09:36.064Z,14.43
2019-06-20T04:12:04.559Z,13.65
2019-06-20T04:14:33.013Z,14.20
2019-06-20T04:17:01.475Z,15.30
2019-06-20T04:19:29.928Z,15.00
2019-06-20T04:21:58.355Z,16.15
2019-06-20T04:24:28.007Z,15.60
2019-06-20T04:26:56.526Z,15.60
2019-06-20T04:29:24.984Z,15.65
2019-06-20T04:31:53.484Z,15.40
2019-06-20T04:34:22.013Z,15.25
2019-06-20T04:36:50.521Z,15.13
2019-06-20T04:39:19.793Z,15.58
2019-06-20T04:41:48.370Z,16.00
2019-06-20T04:44:16.806Z,16.97
2019-06-20T04:46:50.223Z,15.93
2019-06-20T04:49:19.803Z,16.73
2019-06-20T04:51:48.484Z,15.78
2019-06-20T04:54:17.033Z,17.60
2019-06-20T04:56:45.475Z,16.23
2019-06-20T04:59:13.933Z,16.93
2019-06-20T05:01:42.649Z,16.90
2019-06-20T05:04:11.087Z,16.90
2019-06-20T05:06:44.073Z,17.35
2019-06-20T05:09:12.524Z,18.15
2019-06-20T05:11:40.967Z,17.62
2019-06-20T05:14:09.401Z,17.85
2019-06-20T05:16:37.859Z,17.73
2019-06-20T05:19:06.291Z,18.77
2019-06-20T05:21:34.740Z,17.20
2019-06-20T05:24:03.195Z,19.35
2019-06-20T05:26:31.639Z,19.12
2019-06-20T05:29:00.074Z,20.80
2019-06-20T05:31:29.299Z,19.50
2019-06-20T05:33:57.732Z,18.50
2019-06-20T05:36:26.163Z,19.27
2019-06-20T05:38:54.614Z,19.32
2019-06-20T05:41:23.076Z,18.07
2019-06-20T05:43:51.512Z,19.15
2019-06-20T05:46:19.948Z,19.62
2019-06-20T05:48:48.386Z,19.37
2019-06-20T05:51:16.814Z,20.30
2019-06-20T05:53:45.251Z,21.05
2019-06-20T05:56:13.698Z,20.02
2019-06-20T05:58:42.220Z,20.70
2019-06-20T06:01:11.857Z,21.50
2019-06-20T06:06:08.022Z,24.07
2019-06-20T06:08:36.457Z,29.80
2019-06-20T06:11:05.329Z,29.10
2019-06-20T06:13:33.797Z,33.35
2019-06-20T06:16:02.228Z,31.50
2019-06-20T06:18:30.661Z,31.85
2019-06-20T06:20:59.106Z,34.27
2019-06-20T06:23:27.542Z,40.70
2019-06-20T06:25:57.559Z,39.80
2019-06-20T06:28:25.988Z,39.65
2019-06-20T06:30:54.432Z,39.10
2019-06-20T06:33:22.877Z,41.08
2019-06-20T06:35:51.308Z,41.02
2019-06-20T06:38:21.915Z,45.23
2019-06-20T06:40:49.915Z,42.88
2019-06-20T06:43:18.377Z,48.95
2019-06-20T06:45:46.822Z,49.50
2019-06-20T06:48:15.435Z,50.90
2019-06-20T06:50:43.938Z,54.55
2019-06-20T06:53:12.388Z,50.10
2019-06-20T06:55:41.109Z,50.67
2019-06-20T06:58:09.555Z,55.23
2019-06-20T07:00:38.028Z,56.83
2019-06-20T07:03:07.450Z,58.15
2019-06-20T07:05:35.900Z,59.03
2019-06-20T07:08:04.596Z,61.58
2019-06-20T07:10:33.037Z,60.60
2019-06-20T07:13:01.469Z,59.80
2019-06-20T07:15:29.919Z,61.40
2019-06-20T07:17:58.371Z,60.85
2019-06-20T07:20:26.802Z,60.65
2019-06-20T07:22:55.257Z,58.05
2019-06-20T07:25:23.751Z,55.38
2019-06-20T07:27:52.525Z,55.50
2019-06-20T07:30:21.221Z,56.53
2019-06-20T07:32:49.669Z,53.80
2019-06-20T07:35:18.474Z,52.78
2019-06-20T07:37:46.908Z,49.53
2019-06-20T07:40:15.689Z,52.78
2019-06-20T07:42:44.133Z,50.70
2019-06-20T07:45:13.005Z,49.42
2019-06-20T07:47:41.484Z,47.57
2019-06-20T07:50:10.913Z,49.35
2019-06-20T07:52:39.364Z,50.27
2019-06-20T07:55:08.637Z,48.87
2019-06-20T07:57:37.176Z,48.17
2019-06-20T08:00:10.670Z,46.73
2019-06-20T08:02:39.176Z,43.65
2019-06-20T08:05:08.155Z,45.25
2019-06-20T08:07:36.775Z,41.60
2019-06-20T08:10:15.630Z,40.38
2019-06-20T08:12:44.076Z,38.05
2019-06-20T08:15:15.672Z,35.38
2019-06-20T08:17:43.991Z,34.95
2019-06-20T08:20:13.387Z,33.42
2019-06-20T08:22:41.834Z,33.20
2019-06-20T08:25:10.761Z,32.85
2019-06-20T08:27:51.514Z,31.23
2019-06-20T08:30:25.733Z,31.25
2019-06-20T08:32:54.300Z,29.83
2019-06-20T08:35:25.963Z,29.20
2019-06-20T08:37:56.088Z,29.77
2019-06-20T08:40:26.730Z,28.70
2019-06-20T08:42:57.128Z,27.80
2019-06-20T08:45:28.639Z,29.57
2019-06-20T08:47:58.308Z,30.17
2019-06-20T08:50:27.240Z,27.95
2019-06-20T08:52:57.618Z,28.25
2019-06-20T08:55:26.397Z,27.62
2019-06-20T08:57:56.271Z,27.50
2019-06-20T09:00:27.357Z,29.07
2019-06-20T09:02:56.902Z,33.67
2019-06-20T09:05:26.385Z,33.18
2019-06-20T09:07:56.481Z,34.08
2019-06-20T09:10:28.034Z,34.50
2019-06-20T09:12:57.017Z,37.85
2019-06-20T09:15:25.639Z,36.08
2019-06-20T09:17:55.204Z,38.00
2019-06-20T09:20:24.250Z,34.60
2019-06-20T09:22:54.009Z,37.30
2019-06-20T09:27:52.688Z,35.98
2019-06-20T09:30:21.144Z,36.23
2019-06-20T09:32:49.722Z,34.27
2019-06-20T09:35:18.328Z,34.95
2019-06-20T09:37:46.937Z,33.67
2019-06-20T09:40:17.009Z,33.63
2019-06-20T09:42:45.469Z,34.85
2019-06-20T09:45:15.523Z,35.17
2019-06-20T09:47:43.969Z,28.42
2019-06-20T09:50:13.966Z,28.62
2019-06-20T09:52:42.404Z,29.15
2019-06-20T09:55:11.286Z,30.00
2019-06-20T09:57:39.727Z,30.23
2019-06-20T10:00:16.764Z,27.35
2019-06-20T10:02:47.144Z,28.70
2019-06-20T10:07:43.487Z,35.80
2019-06-20T10:10:12.927Z,33.45
2019-06-20T10:12:41.577Z,34.47
2019-06-20T10:15:21.821Z,34.15
2019-06-20T10:20:19.206Z,32.28
2019-06-20T10:22:48.543Z,31.30
2019-06-20T10:25:17.521Z,29.63
2019-06-20T10:27:46.629Z,26.80
2019-06-20T10:30:18.283Z,26.27
2019-06-20T10:32:46.823Z,24.43
2019-06-20T10:35:15.773Z,23.20
2019-06-20T10:37:45.588Z,21.62
2019-06-20T10:40:15.342Z,20.80
2019-06-20T10:42:44.968Z,19.50
2019-06-20T10:45:17.563Z,17.82
2019-06-20T10:47:47.291Z,17.10
2019-06-20T10:50:16.858Z,17.27
2019-06-20T10:52:45.327Z,17.32
2019-06-20T10:55:14.112Z,17.35
2019-06-20T10:57:42.931Z,18.20
2019-06-20T11:00:26.776Z,16.93
2019-06-20T11:02:44.980Z,17.37
2019-06-20T11:05:13.833Z,17.30
2019-06-20T11:07:43.760Z,18.67
2019-06-20T11:10:13.496Z,18.85
2019-06-20T11:12:47.976Z,18.75
2019-06-20T11:17:40.453Z,12.68
2019-06-20T11:20:11.335Z,13.25
2019-06-20T11:22:41.517Z,14.03
2019-06-20T11:25:10.546Z,14.65
2019-06-20T11:27:38.980Z,14.90
2019-06-20T11:30:12.829Z,15.43
2019-06-20T11:32:41.298Z,19.52
2019-06-20T11:35:10.372Z,18.80
2019-06-20T11:37:39.663Z,19.53
2019-06-20T11:40:10.178Z,19.07
2019-06-20T11:42:39.937Z,18.67
2019-06-20T11:45:09.056Z,19.02
2019-06-20T11:47:38.261Z,18.35
2019-06-20T11:50:09.143Z,18.47
2019-06-20T11:52:41.000Z,19.53
2019-06-20T11:57:35.874Z,14.00
2019-06-20T12:00:06.662Z,14.75
2019-06-20T12:02:35.123Z,14.37
2019-06-20T12:05:05.133Z,13.72
2019-06-20T12:07:33.647Z,14.50
2019-06-20T12:10:03.937Z,14.35
2019-06-20T12:15:00.027Z,13.40
2019-06-20T12:17:28.473Z,14.58
2019-06-20T12:19:56.923Z,15.43
2019-06-20T12:22:25.359Z,16.07
2019-06-20T12:24:53.842Z,14.93
2019-06-20T12:27:22.425Z,21.12
2019-06-20T12:29:50.870Z,21.20
2019-06-20T12:32:21.166Z,19.87
2019-06-20T12:34:50.116Z,18.62
2019-06-20T12:37:18.714Z,21.05
2019-06-20T12:39:48.612Z,19.95
2019-06-20T12:42:17.215Z,20.48
2019-06-20T12:44:46.025Z,19.97
2019-06-20T12:47:14.596Z,19.32
2019-06-20T12:49:43.802Z,19.82
2019-06-20T12:52:12.256Z,19.87
2019-06-20T12:54:41.378Z,20.17
2019-06-20T12:57:10.527Z,18.92
2019-06-20T12:59:39.453Z,19.27
2019-06-20T13:04:38.293Z,19.80
2019-06-20T13:07:07.214Z,21.45
2019-06-20T13:09:35.668Z,19.90
2019-06-20T13:12:04.189Z,20.82
2019-06-20T13:14:32.631Z,22.37
2019-06-20T13:17:01.136Z,21.05
2019-06-20T13:19:29.588Z,20.97
2019-06-20T13:21:58.113Z,17.35
2019-06-20T13:24:26.559Z,14.00
2019-06-20T13:26:55.004Z,14.70
2019-06-20T13:29:23.451Z,14.78
2019-06-20T13:32:03.592Z,15.32
2019-06-20T13:34:22.080Z,15.55
2019-06-20T13:36:50.514Z,14.47
2019-06-20T13:39:18.961Z,15.30
2019-06-20T13:41:48.051Z,15.50
2019-06-20T13:44:17.631Z,16.65
2019-06-20T13:46:46.541Z,15.68
2019-06-20T13:49:15.060Z,15.67
2019-06-20T13:51:43.492Z,15.65
2019-06-20T13:54:11.948Z,14.23
2019-06-20T13:56:40.407Z,16.32
2019-06-20T13:59:10.250Z,15.57
2019-06-20T14:01:40.166Z,15.18
2019-06-20T14:04:08.908Z,20.55
2019-06-20T14:06:37.343Z,22.15
2019-06-20T14:09:07.145Z,19.60
2019-06-20T14:11:35.820Z,21.20
2019-06-20T14:14:04.831Z,19.23
2019-06-20T14:16:33.270Z,20.95
2019-06-20T14:19:01.763Z,21.53
2019-06-20T14:21:30.179Z,20.57
2019-06-20T14:23:58.626Z,21.77
2019-06-20T14:26:27.059Z,21.23
2019-06-20T14:28:55.785Z,21.90
2019-06-20T14:31:24.375Z,19.98
2019-06-20T14:33:52.872Z,20.03
2019-06-20T14:36:21.303Z,19.17
2019-06-20T14:38:49.740Z,18.97
2019-06-20T14:41:18.211Z,19.92
2019-06-20T14:43:47.801Z,19.37
2019-06-20T14:46:16.377Z,19.80
2019-06-20T14:48:45.571Z,20.07
2019-06-20T14:51:14.991Z,21.00
2019-06-20T14:53:44.420Z,19.42
2019-06-20T14:56:13.581Z,15.18
2019-06-20T14:58:42.022Z,14.35
2019-06-20T15:01:10.453Z,14.47
2019-06-20T15:03:38.896Z,14.50
2019-06-20T15:06:07.353Z,15.45
2019-06-20T15:08:35.902Z,14.43
2019-06-20T15:11:04.361Z,20.02
2019-06-20T15:13:32.795Z,19.57
2019-06-20T15:16:01.226Z,19.45
2019-06-20T15:18:29.724Z,20.23
2019-06-20T15:20:59.519Z,19.32
2019-06-20T15:23:28.075Z,20.52
2019-06-20T15:25:56.507Z,21.27
2019-06-20T15:28:24.960Z,21.27
2019-06-20T15:30:54.775Z,22.75
2019-06-20T15:35:52.981Z,22.13
2019-06-20T15:38:21.194Z,22.15
2019-06-20T15:40:50.336Z,23.75
2019-06-20T15:43:20.052Z,23.55
2019-06-20T15:45:50.228Z,22.50
2019-06-20T15:48:18.658Z,22.63
2019-06-20T15:50:47.102Z,20.70
2019-06-20T15:53:15.537Z,20.00
2019-06-20T15:55:43.989Z,19.87
2019-06-20T15:58:12.432Z,19.80
2019-06-20T16:00:40.859Z,19.67
2019-06-20T16:03:11.333Z,18.87
2019-06-20T16:05:40.631Z,19.20
2019-06-20T16:08:09.146Z,20.43
2019-06-20T16:10:37.621Z,19.82
2019-06-20T16:13:06.121Z,20.77
2019-06-20T16:15:34.548Z,20.77
2019-06-20T16:18:03.111Z,19.70
2019-06-20T16:20:31.551Z,19.85
2019-06-20T16:23:00.075Z,19.12
2019-06-20T16:25:28.511Z,17.98
2019-06-20T16:27:56.936Z,16.27
2019-06-20T16:30:25.444Z,15.20
2019-06-20T16:32:53.904Z,13.88
2019-06-20T16:35:22.501Z,14.63
2019-06-20T16:37:51.071Z,13.30
2019-06-20T16:40:22.637Z,14.20
2019-06-20T16:42:51.097Z,13.13
2019-06-20T16:45:20.121Z,13.08
2019-06-20T16:47:48.669Z,13.07
2019-06-20T16:50:17.158Z,13.13
2019-06-20T16:52:45.627Z,13.28
2019-06-20T16:55:14.502Z,12.68
2019-06-20T16:57:42.942Z,12.83
2019-06-20T17:00:12.324Z,12.58
2019-06-20T17:02:40.887Z,13.63
2019-06-20T17:05:09.757Z,12.47
2019-06-20T17:07:38.229Z,13.17
2019-06-20T17:10:07.104Z,13.30
2019-06-20T17:12:35.533Z,14.15
2019-06-20T17:15:05.200Z,8.83
2019-06-20T17:17:33.653Z,9.78
2019-06-20T17:20:02.253Z,8.88
2019-06-20T17:22:30.727Z,8.63
2019-06-20T17:24:59.226Z,8.80
2019-06-20T17:27:27.694Z,9.78
2019-06-20T17:29:56.128Z,9.50
2019-06-20T17:32:24.557Z,9.00
2019-06-20T17:34:53.001Z,10.08
2019-06-20T17:37:21.433Z,9.48
2019-06-20T17:39:49.859Z,9.60
2019-06-20T17:42:18.297Z,10.50
2019-06-20T17:44:46.744Z,10.25
2019-06-20T17:47:15.169Z,10.38
2019-06-20T17:49:43.658Z,9.73
2019-06-20T17:52:12.083Z,10.50
2019-06-20T17:54:40.534Z,10.88
2019-06-20T17:57:08.968Z,10.78
2019-06-20T17:59:37.404Z,12.50
2019-06-20T18:02:06.016Z,11.18
2019-06-20T18:04:34.529Z,11.28
2019-06-20T18:07:02.980Z,11.70
2019-06-20T18:09:31.409Z,11.28
2019-06-20T18:11:59.879Z,11.73
2019-06-20T18:14:28.349Z,10.80
2019-06-20T18:16:56.796Z,11.20
2019-06-20T18:19:25.226Z,10.28
2019-06-20T18:21:53.656Z,10.65
2019-06-20T18:24:22.091Z,9.88
2019-06-20T18:26:50.531Z,10.68
2019-06-20T18:29:18.995Z,9.80
2019-06-20T18:31:47.419Z,9.88
2019-06-20T18:34:29.073Z,10.98
2019-06-20T18:39:13.721Z,10.23
2019-06-20T18:41:42.160Z,10.15
2019-06-20T18:44:10.598Z,9.50
2019-06-20T18:46:39.060Z,10.53
2019-06-20T18:49:07.523Z,9.25
2019-06-20T18:51:35.970Z,10.90
2019-06-20T18:54:04.656Z,11.53
2019-06-20T18:56:33.324Z,10.68
2019-06-20T18:59:01.762Z,9.88
2019-06-20T19:01:30.320Z,10.80
2019-06-20T19:03:58.750Z,11.18
2019-06-20T19:06:36.097Z,9.78
2019-06-20T19:08:57.354Z,10.55
2019-06-20T19:11:25.775Z,10.38
2019-06-20T19:13:54.256Z,11.00
2019-06-20T19:16:22.709Z,11.60
2019-06-20T19:18:51.141Z,10.78
2019-06-20T19:21:19.601Z,11.88
2019-06-20T19:23:48.039Z,12.20
2019-06-20T19:26:16.480Z,14.63
2019-06-20T19:28:45.026Z,14.10
2019-06-20T19:31:13.519Z,14.13
2019-06-20T19:33:41.964Z,14.45
2019-06-20T19:36:10.387Z,12.95
2019-06-20T19:38:38.880Z,14.60
2019-06-20T19:41:07.311Z,16.45
2019-06-20T19:43:35.767Z,15.55
2019-06-20T19:46:04.196Z,15.48
2019-06-20T19:48:32.702Z,16.90
2019-06-20T19:51:01.247Z,16.82
2019-06-20T19:53:29.980Z,16.20
2019-06-20T19:55:58.438Z,15.88
2019-06-20T19:58:26.872Z,16.90
2019-06-20T20:00:55.319Z,17.45
2019-06-20T20:03:23.764Z,15.50
2019-06-20T20:05:52.189Z,17.55
2019-06-20T20:08:20.849Z,16.40
2019-06-20T20:10:50.129Z,16.97
2019-06-20T20:13:18.912Z,17.30
2019-06-20T20:15:47.695Z,17.23
2019-06-20T20:18:16.299Z,18.20
2019-06-20T20:20:47.576Z,17.15
2019-06-20T20:23:16.709Z,18.12
2019-06-20T20:25:45.382Z,17.17
2019-06-20T20:28:13.884Z,16.02
2019-06-20T20:30:42.354Z,15.20
2019-06-20T20:33:10.844Z,14.10
2019-06-20T20:35:39.314Z,14.85
2019-06-20T20:38:07.813Z,13.38
2019-06-20T20:40:36.244Z,14.65
2019-06-20T20:43:05.021Z,14.70
2019-06-20T20:45:33.482Z,14.68
2019-06-20T20:48:02.091Z,14.38
2019-06-20T20:50:30.516Z,15.55
2019-06-20T20:52:59.030Z,15.27
2019-06-20T20:55:27.457Z,13.98
2019-06-20T20:57:55.888Z,14.50
2019-06-20T21:00:33.274Z,14.43
2019-06-20T21:03:01.713Z,14.68
2019-06-20T21:05:30.155Z,13.32
2019-06-20T21:07:58.599Z,14.33
2019-06-20T21:10:27.053Z,13.88
2019-06-20T21:12:55.494Z,15.10
2019-06-20T21:15:25.074Z,15.03
2019-06-20T21:17:55.692Z,14.45
2019-06-20T21:20:23.969Z,14.58
2019-06-20T21:22:52.434Z,16.07
2019-06-20T21:25:21.135Z,14.18
2019-06-20T21:27:49.599Z,15.45
2019-06-20T21:30:18.349Z,15.65
2019-06-20T21:32:46.784Z,16.05
2019-06-20T21:35:15.659Z,15.70
2019-06-20T21:37:44.095Z,15.17
2019-06-20T21:40:12.714Z,17.00
2019-06-20T21:42:41.143Z,16.23
2019-06-20T21:45:10.501Z,17.05
2019-06-20T21:47:38.954Z,17.23
2019-06-20T21:50:08.036Z,16.35
2019-06-20T21:52:36.567Z,17.53
2019-06-20T21:55:08.491Z,17.40
2019-06-20T21:57:36.919Z,18.30
2019-06-20T22:00:21.099Z,17.12
2019-06-20T22:02:49.528Z,18.00
2019-06-20T22:05:18.115Z,19.05
2019-06-20T22:07:46.554Z,17.50
2019-06-20T22:10:15.624Z,18.60
2019-06-20T22:12:44.064Z,17.63
2019-06-20T22:15:13.052Z,19.02
2019-06-20T22:17:41.482Z,18.97
2019-06-20T22:20:10.250Z,17.15
2019-06-20T22:22:38.684Z,17.70
2019-06-20T22:25:09.832Z,16.85
2019-06-20T22:27:38.265Z,16.00
2019-06-20T22:30:14.697Z,16.40
2019-06-20T22:32:43.135Z,16.57
2019-06-20T22:35:11.901Z,15.53
2019-06-20T22:37:40.349Z,15.23
2019-06-20T22:40:09.807Z,16.75
2019-06-20T22:42:38.494Z,14.27
2019-06-20T22:45:07.582Z,15.05
2019-06-20T22:47:36.022Z,14.73
2019-06-20T22:50:07.498Z,13.60
2019-06-20T22:52:35.967Z,14.47
2019-06-20T22:55:06.982Z,13.53
2019-06-20T22:57:35.415Z,13.23
2019-06-20T23:00:08.953Z,12.20
2019-06-20T23:02:37.389Z,11.57
2019-06-20T23:05:09.928Z,11.70
2019-06-20T23:07:38.414Z,10.00
2019-06-20T23:10:11.372Z,10.82
2019-06-20T23:12:39.926Z,10.53
2019-06-20T23:15:09.005Z,10.43
2019-06-20T23:17:37.488Z,9.43
2019-06-20T23:20:07.217Z,9.33
2019-06-20T23:22:35.667Z,9.20
2019-06-20T23:25:06.985Z,8.60
2019-06-20T23:27:35.411Z,8.83
2019-06-20T23:30:09.190Z,9.25
2019-06-20T23:32:37.656Z,8.20
2019-06-20T23:35:07.041Z,8.33
2019-06-20T23:37:35.547Z,8.00
2019-06-20T23:40:08.307Z,8.35
2019-06-20T23:42:36.834Z,8.50
2019-06-20T23:45:07.735Z,8.90
2019-06-20T23:47:36.412Z,9.50
2019-06-20T23:50:09.536Z,8.80
2019-06-20T23:52:54.703Z,10.10
2019-06-20T23:55:23.154Z,10.30
2019-06-20T23:57:51.609Z,9.08
